sensor_id;sensor_type;location;lat;lon;timestamp;P1;durP1;ratioP1;P2;durP2;ratioP2
11865;SDS011;5992;52.744;6.898;2023-11-21T00:01:52;5.53;;;4.07;;
11865;SDS011;5992;52.744;6.898;2023-11-21T00:05:04;6.33;;;4.63;;
11865;SDS011;5992;52.744;6.898;2023-11-21T00:08:05;5.60;;;4.30;;
11865;SDS011;5992;52.744;6.898;2023-11-21T00:17:19;9.47;;;5.50;;
11865;SDS011;5992;52.744;6.898;2023-11-21T00:20:35;7.73;;;5.33;;
11865;SDS011;5992;52.744;6.898;2023-11-21T00:23:50;7.63;;;4.50;;
11865;SDS011;5992;52.744;6.898;2023-11-21T00:26:54;7.40;;;5.37;;
11865;SDS011;5992;52.744;6.898;2023-11-21T00:30:08;7.17;;;5.13;;
11865;SDS011;5992;52.744;6.898;2023-11-21T00:33:10;6.37;;;5.03;;
11865;SDS011;5992;52.744;6.898;2023-11-21T00:36:35;6.90;;;4.83;;
11865;SDS011;5992;52.744;6.898;2023-11-21T00:39:35;6.00;;;4.60;;
11865;SDS011;5992;52.744;6.898;2023-11-21T00:42:48;7.50;;;4.70;;
11865;SDS011;5992;52.744;6.898;2023-11-21T00:45:48;7.13;;;5.10;;
11865;SDS011;5992;52.744;6.898;2023-11-21T00:49:03;6.00;;;4.93;;
11865;SDS011;5992;52.744;6.898;2023-11-21T00:55:39;7.20;;;5.20;;
11865;SDS011;5992;52.744;6.898;2023-11-21T00:58:33;8.90;;;5.10;;
11865;SDS011;5992;52.744;6.898;2023-11-21T01:01:45;6.40;;;5.03;;
11865;SDS011;5992;52.744;6.898;2023-11-21T01:04:46;8.87;;;5.60;;
11865;SDS011;5992;52.744;6.898;2023-11-21T01:08:12;7.77;;;6.00;;
11865;SDS011;5992;52.744;6.898;2023-11-21T01:11:13;7.60;;;5.47;;
11865;SDS011;5992;52.744;6.898;2023-11-21T01:14:25;9.90;;;5.70;;
11865;SDS011;5992;52.744;6.898;2023-11-21T01:17:30;9.10;;;5.60;;
11865;SDS011;5992;52.744;6.898;2023-11-21T01:20:44;8.03;;;5.67;;
11865;SDS011;5992;52.744;6.898;2023-11-21T01:23:57;9.27;;;7.27;;
11865;SDS011;5992;52.744;6.898;2023-11-21T01:27:22;7.10;;;5.53;;
11865;SDS011;5992;52.744;6.898;2023-11-21T01:30:22;14.10;;;6.83;;
11865;SDS011;5992;52.744;6.898;2023-11-21T01:36:31;8.60;;;5.90;;
11865;SDS011;5992;52.744;6.898;2023-11-21T01:39:55;9.07;;;5.60;;
11865;SDS011;5992;52.744;6.898;2023-11-21T01:42:55;13.27;;;6.47;;
11865;SDS011;5992;52.744;6.898;2023-11-21T01:46:08;8.63;;;6.23;;
11865;SDS011;5992;52.744;6.898;2023-11-21T01:49:20;7.37;;;5.90;;
11865;SDS011;5992;52.744;6.898;2023-11-21T01:52:34;8.33;;;5.97;;
11865;SDS011;5992;52.744;6.898;2023-11-21T01:55:46;7.90;;;5.23;;
11865;SDS011;5992;52.744;6.898;2023-11-21T01:59:11;9.33;;;5.93;;
11865;SDS011;5992;52.744;6.898;2023-11-21T02:02:23;6.70;;;5.80;;
11865;SDS011;5992;52.744;6.898;2023-11-21T02:05:36;7.80;;;6.17;;
11865;SDS011;5992;52.744;6.898;2023-11-21T02:08:49;7.57;;;5.40;;
11865;SDS011;5992;52.744;6.898;2023-11-21T02:12:15;10.63;;;6.33;;
11865;SDS011;5992;52.744;6.898;2023-11-21T02:15:15;9.73;;;6.93;;
11865;SDS011;5992;52.744;6.898;2023-11-21T02:18:39;9.50;;;6.53;;
11865;SDS011;5992;52.744;6.898;2023-11-21T02:22:04;8.17;;;5.87;;
11865;SDS011;5992;52.744;6.898;2023-11-21T02:25:18;9.03;;;6.30;;
11865;SDS011;5992;52.744;6.898;2023-11-21T02:28:42;11.37;;;6.23;;
11865;SDS011;5992;52.744;6.898;2023-11-21T02:31:42;7.63;;;6.20;;
11865;SDS011;5992;52.744;6.898;2023-11-21T02:35:07;10.60;;;6.23;;
11865;SDS011;5992;52.744;6.898;2023-11-21T02:38:08;8.13;;;5.87;;
11865;SDS011;5992;52.744;6.898;2023-11-21T02:41:23;8.30;;;6.20;;
11865;SDS011;5992;52.744;6.898;2023-11-21T02:44:35;7.47;;;5.50;;
11865;SDS011;5992;52.744;6.898;2023-11-21T02:47:47;9.07;;;5.67;;
11865;SDS011;5992;52.744;6.898;2023-11-21T02:51:11;6.57;;;5.07;;
11865;SDS011;5992;52.744;6.898;2023-11-21T02:54:23;7.00;;;5.77;;
11865;SDS011;5992;52.744;6.898;2023-11-21T02:57:26;7.03;;;5.90;;
11865;SDS011;5992;52.744;6.898;2023-11-21T03:00:51;7.40;;;5.40;;
11865;SDS011;5992;52.744;6.898;2023-11-21T03:03:51;7.43;;;5.90;;
11865;SDS011;5992;52.744;6.898;2023-11-21T03:07:16;10.30;;;6.23;;
11865;SDS011;5992;52.744;6.898;2023-11-21T03:10:28;7.90;;;5.40;;
11865;SDS011;5992;52.744;6.898;2023-11-21T03:16:56;7.37;;;6.13;;
11865;SDS011;5992;52.744;6.898;2023-11-21T03:20:23;7.00;;;5.57;;
11865;SDS011;5992;52.744;6.898;2023-11-21T03:23:35;7.23;;;5.20;;
11865;SDS011;5992;52.744;6.898;2023-11-21T03:29:51;6.57;;;5.40;;
11865;SDS011;5992;52.744;6.898;2023-11-21T03:33:06;6.73;;;5.47;;
11865;SDS011;5992;52.744;6.898;2023-11-21T03:36:18;6.93;;;6.23;;
11865;SDS011;5992;52.744;6.898;2023-11-21T03:39:31;8.45;;;6.00;;
11865;SDS011;5992;52.744;6.898;2023-11-21T03:42:31;7.40;;;6.30;;
11865;SDS011;5992;52.744;6.898;2023-11-21T03:45:44;8.07;;;5.73;;
11865;SDS011;5992;52.744;6.898;2023-11-21T03:48:46;9.80;;;7.20;;
11865;SDS011;5992;52.744;6.898;2023-11-21T03:52:11;7.50;;;6.00;;
11865;SDS011;5992;52.744;6.898;2023-11-21T03:55:11;7.27;;;5.40;;
11865;SDS011;5992;52.744;6.898;2023-11-21T03:58:24;6.97;;;5.33;;
11865;SDS011;5992;52.744;6.898;2023-11-21T04:01:24;6.53;;;5.70;;
11865;SDS011;5992;52.744;6.898;2023-11-21T04:04:51;6.97;;;5.67;;
11865;SDS011;5992;52.744;6.898;2023-11-21T04:08:06;6.67;;;5.33;;
11865;SDS011;5992;52.744;6.898;2023-11-21T04:11:21;6.13;;;5.50;;
11865;SDS011;5992;52.744;6.898;2023-11-21T04:14:24;7.93;;;5.60;;
11865;SDS011;5992;52.744;6.898;2023-11-21T04:17:41;6.70;;;5.17;;
11865;SDS011;5992;52.744;6.898;2023-11-21T04:20:48;7.10;;;6.20;;
11865;SDS011;5992;52.744;6.898;2023-11-21T04:24:15;12.33;;;5.77;;
11865;SDS011;5992;52.744;6.898;2023-11-21T04:27:23;7.50;;;6.47;;
11865;SDS011;5992;52.744;6.898;2023-11-21T04:30:35;7.17;;;5.47;;
11865;SDS011;5992;52.744;6.898;2023-11-21T04:33:35;6.40;;;5.73;;
11865;SDS011;5992;52.744;6.898;2023-11-21T04:36:56;9.50;;;6.50;;
11865;SDS011;5992;52.744;6.898;2023-11-21T04:40:09;6.57;;;5.13;;
11865;SDS011;5992;52.744;6.898;2023-11-21T04:43:21;7.77;;;5.97;;
11865;SDS011;5992;52.744;6.898;2023-11-21T04:46:21;7.10;;;5.60;;
11865;SDS011;5992;52.744;6.898;2023-11-21T04:52:50;9.23;;;6.90;;
11865;SDS011;5992;52.744;6.898;2023-11-21T04:56:18;8.97;;;5.50;;
11865;SDS011;5992;52.744;6.898;2023-11-21T04:59:22;7.60;;;6.07;;
11865;SDS011;5992;52.744;6.898;2023-11-21T05:02:40;8.33;;;5.93;;
11865;SDS011;5992;52.744;6.898;2023-11-21T05:05:40;11.40;;;5.87;;
11865;SDS011;5992;52.744;6.898;2023-11-21T05:08:56;8.03;;;6.20;;
11865;SDS011;5992;52.744;6.898;2023-11-21T05:11:57;9.10;;;5.90;;
11865;SDS011;5992;52.744;6.898;2023-11-21T05:15:09;9.23;;;6.37;;
11865;SDS011;5992;52.744;6.898;2023-11-21T05:18:21;7.67;;;5.97;;
11865;SDS011;5992;52.744;6.898;2023-11-21T05:21:34;13.10;;;6.60;;
11865;SDS011;5992;52.744;6.898;2023-11-21T05:24:40;11.87;;;7.60;;
11865;SDS011;5992;52.744;6.898;2023-11-21T05:28:06;9.20;;;6.33;;
11865;SDS011;5992;52.744;6.898;2023-11-21T05:31:06;9.93;;;6.47;;
11865;SDS011;5992;52.744;6.898;2023-11-21T05:34:19;10.97;;;6.93;;
11865;SDS011;5992;52.744;6.898;2023-11-21T05:37:20;10.17;;;6.73;;
11865;SDS011;5992;52.744;6.898;2023-11-21T05:40:34;7.60;;;6.40;;
11865;SDS011;5992;52.744;6.898;2023-11-21T05:47:05;13.60;;;7.07;;
11865;SDS011;5992;52.744;6.898;2023-11-21T05:50:07;7.60;;;6.37;;
11865;SDS011;5992;52.744;6.898;2023-11-21T05:53:32;8.13;;;5.87;;
11865;SDS011;5992;52.744;6.898;2023-11-21T05:56:33;9.50;;;5.90;;
11865;SDS011;5992;52.744;6.898;2023-11-21T05:59:58;9.17;;;6.30;;
11865;SDS011;5992;52.744;6.898;2023-11-21T06:03:11;7.83;;;5.83;;
11865;SDS011;5992;52.744;6.898;2023-11-21T06:06:11;7.37;;;6.27;;
11865;SDS011;5992;52.744;6.898;2023-11-21T06:09:35;8.57;;;6.00;;
11865;SDS011;5992;52.744;6.898;2023-11-21T06:12:36;8.90;;;6.67;;
11865;SDS011;5992;52.744;6.898;2023-11-21T06:16:01;8.30;;;6.27;;
11865;SDS011;5992;52.744;6.898;2023-11-21T06:19:01;7.90;;;5.63;;
11865;SDS011;5992;52.744;6.898;2023-11-21T06:22:14;11.10;;;6.60;;
11865;SDS011;5992;52.744;6.898;2023-11-21T06:25:14;10.90;;;7.10;;
11865;SDS011;5992;52.744;6.898;2023-11-21T06:28:32;10.47;;;7.40;;
11865;SDS011;5992;52.744;6.898;2023-11-21T06:31:47;10.20;;;7.07;;
11865;SDS011;5992;52.744;6.898;2023-11-21T06:34:59;8.03;;;6.43;;
11865;SDS011;5992;52.744;6.898;2023-11-21T06:37:59;11.57;;;7.70;;
11865;SDS011;5992;52.744;6.898;2023-11-21T06:41:11;8.37;;;6.43;;
11865;SDS011;5992;52.744;6.898;2023-11-21T06:44:13;8.90;;;7.13;;
11865;SDS011;5992;52.744;6.898;2023-11-21T06:47:39;10.50;;;8.20;;
11865;SDS011;5992;52.744;6.898;2023-11-21T06:50:40;9.53;;;7.07;;
11865;SDS011;5992;52.744;6.898;2023-11-21T06:54:04;10.70;;;7.17;;
11865;SDS011;5992;52.744;6.898;2023-11-21T07:00:30;9.83;;;7.23;;
11865;SDS011;5992;52.744;6.898;2023-11-21T07:03:48;12.23;;;8.13;;
11865;SDS011;5992;52.744;6.898;2023-11-21T07:07:15;9.30;;;6.83;;
11865;SDS011;5992;52.744;6.898;2023-11-21T07:10:15;9.27;;;7.20;;
11865;SDS011;5992;52.744;6.898;2023-11-21T07:13:30;12.63;;;8.03;;
11865;SDS011;5992;52.744;6.898;2023-11-21T07:16:35;10.33;;;8.23;;
11865;SDS011;5992;52.744;6.898;2023-11-21T07:20:03;11.87;;;8.50;;
11865;SDS011;5992;52.744;6.898;2023-11-21T07:23:17;13.70;;;8.37;;
11865;SDS011;5992;52.744;6.898;2023-11-21T07:26:30;13.10;;;8.73;;
11865;SDS011;5992;52.744;6.898;2023-11-21T07:29:30;13.50;;;8.57;;
11865;SDS011;5992;52.744;6.898;2023-11-21T07:32:43;14.33;;;9.17;;
11865;SDS011;5992;52.744;6.898;2023-11-21T07:38:57;13.53;;;8.37;;
11865;SDS011;5992;52.744;6.898;2023-11-21T07:41:57;12.87;;;8.97;;
11865;SDS011;5992;52.744;6.898;2023-11-21T07:45:09;15.93;;;9.50;;
11865;SDS011;5992;52.744;6.898;2023-11-21T07:48:22;12.57;;;8.53;;
11865;SDS011;5992;52.744;6.898;2023-11-21T07:51:47;14.40;;;9.13;;
11865;SDS011;5992;52.744;6.898;2023-11-21T07:54:47;13.13;;;9.33;;
11865;SDS011;5992;52.744;6.898;2023-11-21T07:57:59;17.17;;;9.07;;
11865;SDS011;5992;52.744;6.898;2023-11-21T08:00:59;16.87;;;9.40;;
11865;SDS011;5992;52.744;6.898;2023-11-21T08:04:13;15.13;;;9.00;;
11865;SDS011;5992;52.744;6.898;2023-11-21T08:07:26;14.73;;;9.20;;
11865;SDS011;5992;52.744;6.898;2023-11-21T08:13:34;16.37;;;9.33;;
11865;SDS011;5992;52.744;6.898;2023-11-21T08:16:50;12.57;;;8.87;;
11865;SDS011;5992;52.744;6.898;2023-11-21T08:20:04;12.53;;;8.33;;
11865;SDS011;5992;52.744;6.898;2023-11-21T08:23:29;13.00;;;8.87;;
11865;SDS011;5992;52.744;6.898;2023-11-21T08:26:29;16.20;;;9.10;;
11865;SDS011;5992;52.744;6.898;2023-11-21T08:29:42;12.87;;;8.30;;
11865;SDS011;5992;52.744;6.898;2023-11-21T08:32:54;13.77;;;9.23;;
11865;SDS011;5992;52.744;6.898;2023-11-21T08:36:09;12.93;;;8.93;;
11865;SDS011;5992;52.744;6.898;2023-11-21T08:39:21;12.83;;;8.87;;
11865;SDS011;5992;52.744;6.898;2023-11-21T08:42:34;12.17;;;9.30;;
11865;SDS011;5992;52.744;6.898;2023-11-21T08:45:34;12.80;;;8.97;;
11865;SDS011;5992;52.744;6.898;2023-11-21T08:48:46;14.90;;;8.57;;
11865;SDS011;5992;52.744;6.898;2023-11-21T08:51:49;13.97;;;8.50;;
11865;SDS011;5992;52.744;6.898;2023-11-21T08:55:16;12.80;;;9.07;;
11865;SDS011;5992;52.744;6.898;2023-11-21T09:01:44;15.90;;;8.50;;
11865;SDS011;5992;52.744;6.898;2023-11-21T09:05:58;14.03;;;8.57;;
11865;SDS011;5992;52.744;6.898;2023-11-21T09:09:24;12.40;;;8.60;;
11865;SDS011;5992;52.744;6.898;2023-11-21T09:15:48;17.43;;;9.63;;
11865;SDS011;5992;52.744;6.898;2023-11-21T09:19:04;21.63;;;10.47;;
11865;SDS011;5992;52.744;6.898;2023-11-21T09:22:11;12.87;;;8.90;;
11865;SDS011;5992;52.744;6.898;2023-11-21T09:25:40;15.30;;;9.20;;
11865;SDS011;5992;52.744;6.898;2023-11-21T09:28:50;17.77;;;10.57;;
11865;SDS011;5992;52.744;6.898;2023-11-21T09:32:12;16.33;;;10.97;;
11865;SDS011;5992;52.744;6.898;2023-11-21T09:35:18;18.23;;;10.90;;
11865;SDS011;5992;52.744;6.898;2023-11-21T09:38:35;20.80;;;10.83;;
11865;SDS011;5992;52.744;6.898;2023-11-21T09:45:21;18.80;;;10.47;;
11865;SDS011;5992;52.744;6.898;2023-11-21T09:48:36;17.55;;;11.35;;
11865;SDS011;5992;52.744;6.898;2023-11-21T09:52:03;22.30;;;12.85;;
11865;SDS011;5992;52.744;6.898;2023-11-21T09:55:22;15.77;;;10.70;;
11865;SDS011;5992;52.744;6.898;2023-11-21T09:58:54;17.60;;;12.07;;
11865;SDS011;5992;52.744;6.898;2023-11-21T10:02:01;18.27;;;11.87;;
11865;SDS011;5992;52.744;6.898;2023-11-21T10:05:28;17.13;;;11.47;;
11865;SDS011;5992;52.744;6.898;2023-11-21T10:08:31;16.67;;;11.50;;
11865;SDS011;5992;52.744;6.898;2023-11-21T10:11:56;17.07;;;10.67;;
11865;SDS011;5992;52.744;6.898;2023-11-21T10:15:11;17.20;;;10.77;;
11865;SDS011;5992;52.744;6.898;2023-11-21T10:18:41;15.43;;;11.27;;
11865;SDS011;5992;52.744;6.898;2023-11-21T10:21:54;15.07;;;10.03;;
11865;SDS011;5992;52.744;6.898;2023-11-21T10:25:32;15.47;;;10.80;;
11865;SDS011;5992;52.744;6.898;2023-11-21T10:28:55;11.63;;;9.37;;
11865;SDS011;5992;52.744;6.898;2023-11-21T10:32:27;12.00;;;9.67;;
11865;SDS011;5992;52.744;6.898;2023-11-21T10:35:44;14.93;;;10.27;;
11865;SDS011;5992;52.744;6.898;2023-11-21T10:39:03;13.37;;;9.93;;
11865;SDS011;5992;52.744;6.898;2023-11-21T10:42:18;12.33;;;9.43;;
11865;SDS011;5992;52.744;6.898;2023-11-21T10:45:25;14.20;;;9.50;;
11865;SDS011;5992;52.744;6.898;2023-11-21T10:48:51;10.60;;;9.17;;
11865;SDS011;5992;52.744;6.898;2023-11-21T10:52:09;11.33;;;9.10;;
11865;SDS011;5992;52.744;6.898;2023-11-21T10:55:26;11.10;;;8.03;;
11865;SDS011;5992;52.744;6.898;2023-11-21T10:58:29;9.03;;;7.30;;
11865;SDS011;5992;52.744;6.898;2023-11-21T11:01:49;8.27;;;7.00;;
11865;SDS011;5992;52.744;6.898;2023-11-21T11:05:01;8.63;;;6.90;;
11865;SDS011;5992;52.744;6.898;2023-11-21T11:08:26;7.93;;;6.53;;
11865;SDS011;5992;52.744;6.898;2023-11-21T11:11:38;8.63;;;6.73;;
11865;SDS011;5992;52.744;6.898;2023-11-21T11:15:11;7.37;;;6.13;;
11865;SDS011;5992;52.744;6.898;2023-11-21T11:18:31;6.97;;;6.00;;
11865;SDS011;5992;52.744;6.898;2023-11-21T11:22:06;7.43;;;6.13;;
11865;SDS011;5992;52.744;6.898;2023-11-21T11:25:28;8.87;;;6.30;;
11865;SDS011;5992;52.744;6.898;2023-11-21T11:28:57;6.17;;;5.27;;
11865;SDS011;5992;52.744;6.898;2023-11-21T11:32:09;6.87;;;6.17;;
11865;SDS011;5992;52.744;6.898;2023-11-21T11:35:41;6.33;;;5.73;;
11865;SDS011;5992;52.744;6.898;2023-11-21T11:38:56;6.00;;;5.40;;
11865;SDS011;5992;52.744;6.898;2023-11-21T11:42:15;7.13;;;5.67;;
11865;SDS011;5992;52.744;6.898;2023-11-21T11:45:31;6.40;;;5.73;;
11865;SDS011;5992;52.744;6.898;2023-11-21T11:49:04;6.17;;;5.03;;
11865;SDS011;5992;52.744;6.898;2023-11-21T11:52:33;6.75;;;5.80;;
11865;SDS011;5992;52.744;6.898;2023-11-21T11:56:22;6.70;;;5.30;;
11865;SDS011;5992;52.744;6.898;2023-11-21T12:03:11;5.90;;;5.00;;
11865;SDS011;5992;52.744;6.898;2023-11-21T12:06:30;6.60;;;5.90;;
11865;SDS011;5992;52.744;6.898;2023-11-21T12:13:07;6.60;;;5.60;;
11865;SDS011;5992;52.744;6.898;2023-11-21T12:16:37;5.73;;;5.13;;
11865;SDS011;5992;52.744;6.898;2023-11-21T12:19:52;7.13;;;5.53;;
11865;SDS011;5992;52.744;6.898;2023-11-21T12:23:11;5.10;;;4.60;;
11865;SDS011;5992;52.744;6.898;2023-11-21T12:26:14;6.10;;;5.20;;
11865;SDS011;5992;52.744;6.898;2023-11-21T12:29:28;6.00;;;5.40;;
11865;SDS011;5992;52.744;6.898;2023-11-21T12:32:41;6.33;;;5.70;;
11865;SDS011;5992;52.744;6.898;2023-11-21T12:36:11;5.80;;;5.20;;
11865;SDS011;5992;52.744;6.898;2023-11-21T12:39:18;6.40;;;5.70;;
11865;SDS011;5992;52.744;6.898;2023-11-21T12:42:37;7.10;;;5.23;;
11865;SDS011;5992;52.744;6.898;2023-11-21T12:45:53;5.27;;;4.77;;
11865;SDS011;5992;52.744;6.898;2023-11-21T12:49:20;5.10;;;4.55;;
11865;SDS011;5992;52.744;6.898;2023-11-21T12:52:26;5.55;;;4.65;;
11865;SDS011;5992;52.744;6.898;2023-11-21T12:55:43;11.97;;;5.23;;
11865;SDS011;5992;52.744;6.898;2023-11-21T12:58:57;5.20;;;4.67;;
11865;SDS011;5992;52.744;6.898;2023-11-21T13:09:00;5.40;;;4.90;;
11865;SDS011;5992;52.744;6.898;2023-11-21T13:12:16;7.57;;;5.00;;
11865;SDS011;5992;52.744;6.898;2023-11-21T13:18:43;6.93;;;5.10;;
11865;SDS011;5992;52.744;6.898;2023-11-21T13:28:02;5.93;;;5.00;;
11865;SDS011;5992;52.744;6.898;2023-11-21T13:31:33;5.70;;;5.10;;
11865;SDS011;5992;52.744;6.898;2023-11-21T13:37:56;7.00;;;5.33;;
11865;SDS011;5992;52.744;6.898;2023-11-21T13:41:29;6.00;;;5.27;;
11865;SDS011;5992;52.744;6.898;2023-11-21T13:44:31;6.77;;;5.23;;
11865;SDS011;5992;52.744;6.898;2023-11-21T13:48:02;5.90;;;5.05;;
11865;SDS011;5992;52.744;6.898;2023-11-21T13:51:09;5.60;;;4.60;;
11865;SDS011;5992;52.744;6.898;2023-11-21T13:57:44;5.63;;;5.00;;
11865;SDS011;5992;52.744;6.898;2023-11-21T14:00:58;5.80;;;5.10;;
11865;SDS011;5992;52.744;6.898;2023-11-21T14:04:28;6.13;;;4.93;;
11865;SDS011;5992;52.744;6.898;2023-11-21T14:07:35;5.30;;;4.77;;
11865;SDS011;5992;52.744;6.898;2023-11-21T14:10:54;6.27;;;5.30;;
11865;SDS011;5992;52.744;6.898;2023-11-21T14:13:58;7.23;;;5.00;;
11865;SDS011;5992;52.744;6.898;2023-11-21T14:17:15;6.03;;;5.17;;
11865;SDS011;5992;52.744;6.898;2023-11-21T14:20:38;7.63;;;5.27;;
11865;SDS011;5992;52.744;6.898;2023-11-21T14:23:56;7.27;;;4.97;;
11865;SDS011;5992;52.744;6.898;2023-11-21T14:26:56;8.70;;;5.40;;
11865;SDS011;5992;52.744;6.898;2023-11-21T14:30:08;5.10;;;4.60;;
11865;SDS011;5992;52.744;6.898;2023-11-21T14:33:16;6.13;;;5.23;;
11865;SDS011;5992;52.744;6.898;2023-11-21T14:36:50;5.53;;;4.97;;
11865;SDS011;5992;52.744;6.898;2023-11-21T14:40:08;10.27;;;5.57;;
11865;SDS011;5992;52.744;6.898;2023-11-21T14:43:27;5.60;;;5.00;;
11865;SDS011;5992;52.744;6.898;2023-11-21T14:46:33;6.83;;;5.30;;
11865;SDS011;5992;52.744;6.898;2023-11-21T14:49:53;5.73;;;5.13;;
11865;SDS011;5992;52.744;6.898;2023-11-21T14:53:09;6.20;;;5.27;;
11865;SDS011;5992;52.744;6.898;2023-11-21T14:56:16;6.17;;;5.00;;
11865;SDS011;5992;52.744;6.898;2023-11-21T14:59:19;7.93;;;5.57;;
11865;SDS011;5992;52.744;6.898;2023-11-21T15:02:37;6.53;;;5.17;;
11865;SDS011;5992;52.744;6.898;2023-11-21T15:05:51;5.40;;;4.90;;
11865;SDS011;5992;52.744;6.898;2023-11-21T15:09:40;6.57;;;5.30;;
11865;SDS011;5992;52.744;6.898;2023-11-21T15:12:55;7.45;;;5.80;;
11865;SDS011;5992;52.744;6.898;2023-11-21T15:16:11;6.93;;;5.00;;
11865;SDS011;5992;52.744;6.898;2023-11-21T15:19:17;6.17;;;4.73;;
11865;SDS011;5992;52.744;6.898;2023-11-21T15:25:19;5.13;;;4.60;;
11865;SDS011;5992;52.744;6.898;2023-11-21T15:28:49;5.10;;;4.60;;
11865;SDS011;5992;52.744;6.898;2023-11-21T15:31:56;5.67;;;4.63;;
11865;SDS011;5992;52.744;6.898;2023-11-21T15:35:08;4.83;;;4.37;;
11865;SDS011;5992;52.744;6.898;2023-11-21T15:38:26;6.63;;;4.67;;
11865;SDS011;5992;52.744;6.898;2023-11-21T15:41:46;5.77;;;4.60;;
11865;SDS011;5992;52.744;6.898;2023-11-21T15:44:59;6.03;;;4.73;;
11865;SDS011;5992;52.744;6.898;2023-11-21T15:51:39;5.93;;;4.37;;
11865;SDS011;5992;52.744;6.898;2023-11-21T15:55:07;5.70;;;4.50;;
11865;SDS011;5992;52.744;6.898;2023-11-21T15:58:15;4.90;;;4.47;;
11865;SDS011;5992;52.744;6.898;2023-11-21T16:01:44;5.70;;;4.70;;
11865;SDS011;5992;52.744;6.898;2023-11-21T16:05:00;7.13;;;4.27;;
11865;SDS011;5992;52.744;6.898;2023-11-21T16:08:03;4.83;;;4.33;;
11865;SDS011;5992;52.744;6.898;2023-11-21T16:11:17;5.40;;;4.90;;
11865;SDS011;5992;52.744;6.898;2023-11-21T16:14:21;4.97;;;4.47;;
11865;SDS011;5992;52.744;6.898;2023-11-21T16:17:48;4.83;;;4.33;;
11865;SDS011;5992;52.744;6.898;2023-11-21T16:20:51;6.00;;;4.53;;
11865;SDS011;5992;52.744;6.898;2023-11-21T16:24:09;4.90;;;4.30;;
11865;SDS011;5992;52.744;6.898;2023-11-21T16:27:15;4.57;;;4.17;;
11865;SDS011;5992;52.744;6.898;2023-11-21T16:30:35;5.23;;;4.73;;
11865;SDS011;5992;52.744;6.898;2023-11-21T16:33:53;5.10;;;4.33;;
11865;SDS011;5992;52.744;6.898;2023-11-21T16:37:25;4.63;;;4.10;;
11865;SDS011;5992;52.744;6.898;2023-11-21T16:40:27;6.30;;;4.03;;
11865;SDS011;5992;52.744;6.898;2023-11-21T16:43:42;6.17;;;3.97;;
11865;SDS011;5992;52.744;6.898;2023-11-21T16:46:59;4.40;;;3.70;;
11865;SDS011;5992;52.744;6.898;2023-11-21T16:50:23;3.70;;;3.40;;
11865;SDS011;5992;52.744;6.898;2023-11-21T16:57:04;3.93;;;3.63;;
11865;SDS011;5992;52.744;6.898;2023-11-21T17:00:10;4.57;;;3.70;;
11865;SDS011;5992;52.744;6.898;2023-11-21T17:03:32;3.93;;;3.63;;
11865;SDS011;5992;52.744;6.898;2023-11-21T17:10:10;5.75;;;4.15;;
11865;SDS011;5992;52.744;6.898;2023-11-21T17:13:10;3.57;;;3.27;;
11865;SDS011;5992;52.744;6.898;2023-11-21T17:16:23;4.20;;;3.80;;
11865;SDS011;5992;52.744;6.898;2023-11-21T17:19:28;4.60;;;4.17;;
11865;SDS011;5992;52.744;6.898;2023-11-21T17:22:55;4.40;;;4.00;;
11865;SDS011;5992;52.744;6.898;2023-11-21T17:25:58;7.90;;;4.03;;
11865;SDS011;5992;52.744;6.898;2023-11-21T17:29:16;3.90;;;3.57;;
11865;SDS011;5992;52.744;6.898;2023-11-21T17:32:19;5.00;;;3.63;;
11865;SDS011;5992;52.744;6.898;2023-11-21T17:35:40;4.10;;;3.53;;
11865;SDS011;5992;52.744;6.898;2023-11-21T17:38:52;4.90;;;3.57;;
11865;SDS011;5992;52.744;6.898;2023-11-21T17:42:11;5.03;;;3.87;;
11865;SDS011;5992;52.744;6.898;2023-11-21T17:45:17;4.60;;;4.10;;
11865;SDS011;5992;52.744;6.898;2023-11-21T17:48:32;4.43;;;4.03;;
11865;SDS011;5992;52.744;6.898;2023-11-21T17:51:40;3.83;;;3.43;;
11865;SDS011;5992;52.744;6.898;2023-11-21T17:55:09;5.73;;;4.33;;
11865;SDS011;5992;52.744;6.898;2023-11-21T17:58:27;6.47;;;4.17;;
11865;SDS011;5992;52.744;6.898;2023-11-21T18:01:37;4.55;;;4.15;;
11865;SDS011;5992;52.744;6.898;2023-11-21T18:05:07;4.23;;;3.53;;
11865;SDS011;5992;52.744;6.898;2023-11-21T18:08:13;4.27;;;3.87;;
11865;SDS011;5992;52.744;6.898;2023-11-21T18:11:38;7.07;;;4.00;;
11865;SDS011;5992;52.744;6.898;2023-11-21T18:14:41;4.30;;;3.90;;
11865;SDS011;5992;52.744;6.898;2023-11-21T18:18:00;4.60;;;4.10;;
11865;SDS011;5992;52.744;6.898;2023-11-21T18:21:04;4.77;;;3.83;;
11865;SDS011;5992;52.744;6.898;2023-11-21T18:24:21;5.17;;;4.67;;
11865;SDS011;5992;52.744;6.898;2023-11-21T18:27:35;4.67;;;4.20;;
11865;SDS011;5992;52.744;6.898;2023-11-21T18:30:54;6.03;;;4.20;;
11865;SDS011;5992;52.744;6.898;2023-11-21T18:34:18;4.37;;;3.97;;
11865;SDS011;5992;52.744;6.898;2023-11-21T18:37:37;4.30;;;3.90;;
11865;SDS011;5992;52.744;6.898;2023-11-21T18:44:01;4.73;;;4.23;;
11865;SDS011;5992;52.744;6.898;2023-11-21T18:47:19;6.60;;;4.60;;
11865;SDS011;5992;52.744;6.898;2023-11-21T18:50:38;5.27;;;4.13;;
11865;SDS011;5992;52.744;6.898;2023-11-21T18:53:44;4.73;;;4.30;;
11865;SDS011;5992;52.744;6.898;2023-11-21T18:56:59;4.67;;;4.17;;
11865;SDS011;5992;52.744;6.898;2023-11-21T19:00:00;4.63;;;4.17;;
11865;SDS011;5992;52.744;6.898;2023-11-21T19:03:31;5.50;;;4.13;;
11865;SDS011;5992;52.744;6.898;2023-11-21T19:06:34;7.20;;;4.40;;
11865;SDS011;5992;52.744;6.898;2023-11-21T19:09:52;6.13;;;4.43;;
11865;SDS011;5992;52.744;6.898;2023-11-21T19:12:52;6.23;;;4.43;;
11865;SDS011;5992;52.744;6.898;2023-11-21T19:16:08;5.00;;;4.50;;
11865;SDS011;5992;52.744;6.898;2023-11-21T19:19:27;4.83;;;4.00;;
11865;SDS011;5992;52.744;6.898;2023-11-21T19:22:46;4.67;;;4.17;;
11865;SDS011;5992;52.744;6.898;2023-11-21T19:25:53;6.00;;;4.25;;
11865;SDS011;5992;52.744;6.898;2023-11-21T19:29:12;4.30;;;3.77;;
11865;SDS011;5992;52.744;6.898;2023-11-21T19:35:28;6.97;;;4.70;;
11865;SDS011;5992;52.744;6.898;2023-11-21T19:38:47;6.27;;;5.10;;
11865;SDS011;5992;52.744;6.898;2023-11-21T19:42:02;5.70;;;4.63;;
11865;SDS011;5992;52.744;6.898;2023-11-21T19:45:09;4.73;;;4.20;;
11865;SDS011;5992;52.744;6.898;2023-11-21T19:48:27;5.30;;;4.80;;
11865;SDS011;5992;52.744;6.898;2023-11-21T19:51:34;5.03;;;4.53;;
11865;SDS011;5992;52.744;6.898;2023-11-21T19:55:00;6.30;;;5.07;;
11865;SDS011;5992;52.744;6.898;2023-11-21T19:58:17;5.30;;;4.80;;
11865;SDS011;5992;52.744;6.898;2023-11-21T20:01:26;5.53;;;4.47;;
11865;SDS011;5992;52.744;6.898;2023-11-21T20:04:38;7.10;;;4.70;;
11865;SDS011;5992;52.744;6.898;2023-11-21T20:07:42;5.90;;;5.07;;
11865;SDS011;5992;52.744;6.898;2023-11-21T20:11:13;5.10;;;4.57;;
11865;SDS011;5992;52.744;6.898;2023-11-21T20:14:34;7.33;;;4.67;;
11865;SDS011;5992;52.744;6.898;2023-11-21T20:17:55;6.23;;;4.17;;
11865;SDS011;5992;52.744;6.898;2023-11-21T20:20:58;7.30;;;5.23;;
11865;SDS011;5992;52.744;6.898;2023-11-21T20:24:14;6.90;;;4.90;;
11865;SDS011;5992;52.744;6.898;2023-11-21T20:27:33;5.77;;;4.13;;
11865;SDS011;5992;52.744;6.898;2023-11-21T20:30:51;4.73;;;4.20;;
11865;SDS011;5992;52.744;6.898;2023-11-21T20:33:57;6.73;;;5.33;;
11865;SDS011;5992;52.744;6.898;2023-11-21T20:37:16;5.07;;;4.20;;
11865;SDS011;5992;52.744;6.898;2023-11-21T20:40:24;6.50;;;4.53;;
11865;SDS011;5992;52.744;6.898;2023-11-21T20:43:56;5.67;;;4.73;;
11865;SDS011;5992;52.744;6.898;2023-11-21T20:47:02;4.90;;;4.37;;
11865;SDS011;5992;52.744;6.898;2023-11-21T20:50:27;5.20;;;4.37;;
11865;SDS011;5992;52.744;6.898;2023-11-21T20:53:27;8.47;;;4.53;;
11865;SDS011;5992;52.744;6.898;2023-11-21T20:56:40;6.40;;;4.50;;
11865;SDS011;5992;52.744;6.898;2023-11-21T20:59:59;4.60;;;4.20;;
11865;SDS011;5992;52.744;6.898;2023-11-21T21:03:17;5.37;;;4.70;;
11865;SDS011;5992;52.744;6.898;2023-11-21T21:06:23;4.80;;;4.40;;
11865;SDS011;5992;52.744;6.898;2023-11-21T21:09:42;4.40;;;4.00;;
11865;SDS011;5992;52.744;6.898;2023-11-21T21:12:49;5.37;;;4.50;;
11865;SDS011;5992;52.744;6.898;2023-11-21T21:16:26;5.50;;;4.53;;
11865;SDS011;5992;52.744;6.898;2023-11-21T21:19:32;4.93;;;4.23;;